createdAt,value
2023-02-01T00:00:48.098Z,78622.44
2023-02-01T00:01:50.734Z,79926.66
2023-02-01T00:02:53.308Z,79606.34
2023-02-01T00:03:55.794Z,79284.75
2023-02-01T00:04:58.413Z,80260.50
2023-02-01T00:06:01.554Z,81569.13
2023-02-01T00:07:04.180Z,82222.91
2023-02-01T00:08:06.781Z,81569.78
2023-02-01T00:09:09.341Z,81572.41
2023-02-01T00:10:13.299Z,81248.16
2023-02-01T00:11:16.061Z,80921.97
2023-02-01T00:12:18.579Z,82877.47
2023-02-01T00:13:21.098Z,82557.16
2023-02-01T00:14:24.073Z,83860.47
2023-02-01T00:15:26.745Z,82885.47
2023-02-01T00:16:31.181Z,82559.16
2023-02-01T00:17:33.707Z,84521.41
2023-02-01T00:18:36.701Z,83859.13
2023-02-01T00:19:39.350Z,83859.13
2023-02-01T00:20:47.996Z,81892.06
2023-02-01T00:21:50.522Z,82868.09
2023-02-01T00:22:53.159Z,81555.31
2023-02-01T00:23:56.147Z,81886.78
2023-02-01T00:24:58.671Z,80901.72
2023-02-01T00:26:08.527Z,78288.84
2023-02-01T00:27:11.867Z,77952.84
2023-02-01T00:28:14.398Z,78275.63
2023-02-01T00:29:19.556Z,79264.91
2023-02-01T00:30:22.406Z,80572.38
2023-02-01T00:31:27.012Z,80574.97
2023-02-01T00:32:32.882Z,80899.13
2023-02-01T00:33:35.888Z,80578.22
2023-02-01T00:34:38.647Z,81560.59
2023-02-01T00:35:41.632Z,81884.13
2023-02-01T00:36:45.112Z,80907.59
2023-02-01T00:37:47.644Z,81223.94
2023-02-01T00:38:50.279Z,80569.13
2023-02-01T00:39:52.917Z,79918.28
2023-02-01T00:40:55.923Z,79918.28
2023-02-01T00:41:58.452Z,79589.03
2023-02-01T00:43:01.561Z,77953.47
2023-02-01T00:44:04.570Z,77301.66
2023-02-01T00:45:07.690Z,76977.03
2023-02-01T00:46:10.942Z,77300.41
2023-02-01T00:47:13.465Z,76646.22
2023-02-01T00:48:15.966Z,76313.00
2023-02-01T00:49:18.608Z,75338.72
2023-02-01T00:50:21.535Z,75333.28
2023-02-01T00:51:27.732Z,74686.03
2023-02-01T00:52:31.477Z,74352.56
2023-02-01T00:53:34.698Z,73054.72
2023-02-01T00:54:38.416Z,74691.47
2023-02-01T00:55:41.062Z,75014.19
2023-02-01T00:56:43.700Z,75007.56
2023-02-01T00:57:46.347Z,74022.75
2023-02-01T00:58:49.113Z,72714.50
2023-02-01T00:59:51.755Z,71409.59
2023-02-01T01:01:04.652Z,69454.28
2023-02-01T01:02:07.495Z,69775.19
2023-02-01T01:03:19.250Z,68465.66
2023-02-01T01:04:21.995Z,67162.13
2023-02-01T01:05:25.959Z,66509.13
2023-02-01T01:06:34.842Z,65536.97
2023-02-01T01:07:39.647Z,65861.00
2023-02-01T01:08:43.142Z,65531.22
2023-02-01T01:09:46.245Z,64552.47
2023-02-01T01:10:50.683Z,64552.47
2023-02-01T01:11:54.166Z,63899.44
2023-02-01T01:12:57.289Z,62597.25
2023-02-01T01:14:01.762Z,62274.88
2023-02-01T01:15:05.333Z,62599.25
2023-02-01T01:16:11.152Z,61948.03
2023-02-01T01:17:14.335Z,60966.75
2023-02-01T01:18:17.745Z,60318.25
2023-02-01T01:19:20.826Z,59665.00
2023-02-01T01:20:24.009Z,59663.56
2023-02-01T01:21:27.917Z,58362.25
2023-02-01T01:22:31.146Z,57062.63
2023-02-01T01:23:34.628Z,57059.44
2023-02-01T01:24:37.746Z,57060.81
2023-02-01T01:25:41.235Z,57060.81
2023-02-01T01:26:44.538Z,57063.09
2023-02-01T01:27:47.711Z,56412.72
2023-02-01T01:28:51.917Z,56411.81
2023-02-01T01:29:55.155Z,56413.63
2023-02-01T01:30:58.426Z,56088.25
2023-02-01T01:32:01.761Z,56414.97
2023-02-01T01:33:05.722Z,57066.69
2023-02-01T01:34:10.282Z,57719.50
2023-02-01T01:35:13.528Z,58047.31
2023-02-01T01:36:16.887Z,59022.25
2023-02-01T01:37:20.009Z,59674.03
2023-02-01T01:38:23.610Z,59350.72
2023-02-01T01:39:26.851Z,60652.16
2023-02-01T01:40:31.179Z,60981.34
2023-02-01T01:41:34.784Z,61632.53
2023-02-01T01:42:47.495Z,61309.13
2023-02-01T01:43:56.146Z,61964.81
2023-02-01T01:45:02.514Z,62612.25
2023-02-01T01:46:05.987Z,63262.69
2023-02-01T01:47:09.720Z,63262.69
2023-02-01T01:48:22.067Z,63593.28
2023-02-01T01:49:27.952Z,63921.88
2023-02-01T01:50:35.269Z,64244.41
2023-02-01T01:51:45.773Z,63916.78
2023-02-01T01:52:53.038Z,62943.22
2023-02-01T01:54:03.477Z,63923.91
2023-02-01T01:55:06.715Z,65227.50
2023-02-01T01:56:09.608Z,65872.59
2023-02-01T01:57:17.454Z,64575.66
2023-02-01T01:58:25.247Z,65228.53
2023-02-01T01:59:28.607Z,64581.34
2023-02-01T02:00:31.469Z,64896.13
2023-02-01T02:01:34.013Z,65218.13
2023-02-01T02:02:38.339Z,64572.06
2023-02-01T02:03:44.212Z,63919.84
2023-02-01T02:04:48.173Z,63267.72
2023-02-01T02:05:52.332Z,63591.75
2023-02-01T02:07:03.895Z,63271.78
2023-02-01T02:08:06.413Z,63587.69
2023-02-01T02:09:09.058Z,63593.28
2023-02-01T02:10:13.339Z,64242.34
2023-02-01T02:11:18.422Z,64577.22
2023-02-01T02:12:20.907Z,64899.25
2023-02-01T02:13:24.181Z,65227.50
2023-02-01T02:14:27.913Z,64900.28
2023-02-01T02:15:32.464Z,65226.97
2023-02-01T02:16:53.107Z,62294.72
2023-02-01T02:18:21.034Z,59687.78
2023-02-01T02:19:29.593Z,59029.75
2023-02-01T02:21:16.742Z,59686.84
2023-02-01T02:22:58.750Z,55456.03
2023-02-01T02:24:10.275Z,53168.25
2023-02-01T02:25:39.674Z,49598.53
2023-02-01T02:26:57.559Z,47970.16
2023-02-01T02:28:37.401Z,46997.53
2023-02-01T02:29:49.154Z,46671.41
2023-02-01T02:31:21.081Z,44392.63
2023-02-01T02:32:48.555Z,40503.03
2023-02-01T02:34:09.910Z,36618.75
2023-02-01T02:35:30.931Z,36936.25
2023-02-01T02:37:06.437Z,35644.19
2023-02-01T02:38:23.969Z,35644.19
2023-02-01T02:39:38.719Z,36291.03
2023-02-01T02:40:46.877Z,35318.31
2023-02-01T02:42:33.321Z,35319.16
2023-02-01T02:44:17.117Z,34027.66
2023-02-01T02:45:47.289Z,33378.53
2023-02-01T02:47:10.766Z,31761.19
2023-02-01T02:48:23.482Z,30788.19
2023-02-01T02:50:14.504Z,29819.94
2023-02-01T02:51:51.927Z,29497.91
2023-02-01T02:53:33.341Z,27558.78
2023-02-01T02:54:47.745Z,26911.22
2023-02-01T02:55:53.493Z,26587.13
2023-02-01T02:57:18.592Z,25620.16
2023-02-01T02:58:41.501Z,24328.75
2023-02-01T03:00:05.389Z,22716.72
2023-02-01T03:01:28.489Z,21423.59
2023-02-01T03:02:50.414Z,18200.06
2023-02-01T03:04:11.275Z,16266.00
2023-02-01T03:06:19.959Z,10797.34
2023-02-01T03:07:52.078Z,6940.78
2023-02-01T03:08:59.762Z,4050.59
2023-02-01T03:10:09.018Z,1163.59
2023-02-01T03:11:15.001Z,-1079.84
2023-02-01T03:12:57.732Z,-3322.00
2023-02-01T03:14:07.806Z,-6522.41
2023-02-01T03:15:14.169Z,-7161.38
2023-02-01T03:16:37.537Z,-8439.81
2023-02-01T03:17:44.771Z,-10357.41
2023-02-01T03:18:57.143Z,-10995.16
2023-02-01T03:20:04.773Z,-12593.44
2023-02-01T03:21:17.659Z,-12592.44
2023-02-01T03:22:25.938Z,-12911.28
2023-02-01T03:23:35.544Z,-13230.59
2023-02-01T03:24:50.423Z,-13868.56
2023-02-01T03:25:57.863Z,-14505.84
2023-02-01T03:27:10.349Z,-15142.94
2023-02-01T03:28:13.596Z,-15141.81
2023-02-01T03:29:23.070Z,-16100.34
2023-02-01T03:30:33.168Z,-16737.97
2023-02-01T03:31:36.536Z,-16735.81
2023-02-01T03:33:01.854Z,-17055.97
2023-02-01T03:34:10.117Z,-17055.00
2023-02-01T03:35:13.722Z,-17374.69
2023-02-01T03:36:31.964Z,-18013.19
2023-02-01T03:37:36.049Z,-17693.53
2023-02-01T03:39:17.937Z,-18011.88
2023-02-01T03:40:22.464Z,-18011.53
2023-02-01T03:41:51.049Z,-18330.16
2023-02-01T03:42:58.011Z,-17690.59
2023-02-01T03:44:20.818Z,-17690.25
2023-02-01T03:45:43.915Z,-16732.69
2023-02-01T03:46:59.218Z,-16415.66
2023-02-01T03:48:05.221Z,-15138.09
2023-02-01T03:49:12.542Z,-14180.63
2023-02-01T03:50:19.025Z,-13542.06
2023-02-01T03:51:23.466Z,-12903.19
2023-02-01T03:52:48.309Z,-13862.09
2023-02-01T03:53:54.791Z,-13223.47
2023-02-01T03:54:58.928Z,-12585.25
2023-02-01T03:56:01.567Z,-11945.75
2023-02-01T03:57:11.234Z,-13223.59
2023-02-01T03:58:18.917Z,-13861.81
2023-02-01T03:59:21.850Z,-12903.31
2023-02-01T04:00:27.246Z,-13860.88
2023-02-01T04:01:32.353Z,-13861.03
2023-02-01T04:02:35.918Z,-13860.50
2023-02-01T04:03:38.771Z,-14498.16
2023-02-01T04:04:41.609Z,-14816.56
2023-02-01T04:05:44.533Z,-15456.06
2023-02-01T04:06:48.976Z,-16094.31
2023-02-01T04:07:51.616Z,-16093.88
2023-02-01T04:08:54.213Z,-16413.19
2023-02-01T04:09:56.780Z,-16733.16
2023-02-01T04:10:59.302Z,-17052.63
2023-02-01T04:12:02.177Z,-17688.94
2023-02-01T04:13:04.818Z,-18008.19
2023-02-01T04:14:07.663Z,-18007.53
2023-02-01T04:15:10.818Z,-18645.66
2023-02-01T04:16:13.394Z,-18646.00
2023-02-01T04:17:15.991Z,-18963.97
2023-02-01T04:18:18.526Z,-19282.28
2023-02-01T04:19:21.141Z,-19281.75
2023-02-01T04:20:24.257Z,-19600.53
2023-02-01T04:21:27.835Z,-19601.44
2023-02-01T04:22:30.840Z,-19602.34
2023-02-01T04:23:33.388Z,-19921.66
2023-02-01T04:24:36.151Z,-19921.31
2023-02-01T04:25:38.669Z,-19921.31
2023-02-01T04:26:41.219Z,-19921.84
2023-02-01T04:27:44.427Z,-20242.84
2023-02-01T04:28:50.414Z,-20242.66
2023-02-01T04:29:53.068Z,-20246.38
2023-02-01T04:30:55.657Z,-20245.81
2023-02-01T04:31:58.232Z,-20244.34
2023-02-01T04:33:00.883Z,-20243.97
2023-02-01T04:34:03.767Z,-20244.72
2023-02-01T04:35:07.956Z,-20245.81
2023-02-01T04:36:10.838Z,-20246.75
2023-02-01T04:37:13.478Z,-20246.94
2023-02-01T04:38:15.997Z,-20247.50
2023-02-01T04:39:18.518Z,-20246.94
2023-02-01T04:40:21.475Z,-20247.13
2023-02-01T04:41:24.180Z,-20245.09
2023-02-01T04:42:26.925Z,-20245.81
2023-02-01T04:43:29.558Z,-20245.81
2023-02-01T04:44:32.079Z,-20247.88
2023-02-01T04:45:34.602Z,-20247.31
2023-02-01T04:46:37.125Z,-20246.94
2023-02-01T04:47:40.245Z,-20248.59
2023-02-01T04:48:43.365Z,-20248.78
2023-02-01T04:49:45.901Z,-20249.53
2023-02-01T04:50:50.102Z,-20251.53
2023-02-01T04:51:52.607Z,-20250.25
2023-02-01T04:52:55.126Z,-20251.19
2023-02-01T04:53:57.771Z,-20248.78
2023-02-01T04:55:01.130Z,-20249.53
2023-02-01T04:56:03.782Z,-20247.50
2023-02-01T04:57:06.292Z,-20247.69
2023-02-01T04:58:08.938Z,-20246.00
2023-02-01T04:59:13.018Z,-20246.56
2023-02-01T05:00:16.027Z,-20244.91
2023-02-01T05:01:18.679Z,-20245.09
2023-02-01T05:02:21.189Z,-20244.72
2023-02-01T05:03:23.720Z,-20243.63
2023-02-01T05:04:26.407Z,-20243.44
2023-02-01T05:05:29.357Z,-20242.88
2023-02-01T05:06:31.872Z,-20242.50
2023-02-01T05:07:34.524Z,-20243.97
2023-02-01T05:08:38.826Z,-20243.44
2023-02-01T05:09:41.714Z,-20242.50
2023-02-01T05:10:46.293Z,-20243.06
2023-02-01T05:12:07.884Z,-20240.47
2023-02-01T05:13:30.104Z,-20242.88
2023-02-01T05:14:33.090Z,-20241.03
2023-02-01T05:15:35.863Z,-20241.03
2023-02-01T05:16:38.850Z,-20240.28
2023-02-01T05:17:41.852Z,-20240.28
2023-02-01T05:18:45.093Z,-20241.41
2023-02-01T05:19:48.337Z,-20242.50
2023-02-01T05:20:51.696Z,-20241.03
2023-02-01T05:21:54.814Z,-20241.94
2023-02-01T05:22:57.935Z,-20241.41
2023-02-01T05:24:20.984Z,-20241.41
2023-02-01T05:25:24.109Z,-20242.13
2023-02-01T05:26:27.590Z,-20241.22
2023-02-01T05:27:32.147Z,-20240.09
2023-02-01T05:28:35.265Z,-20241.03
2023-02-01T05:29:38.389Z,-20240.66
2023-02-01T05:30:42.426Z,-20240.28
2023-02-01T05:31:47.638Z,-20241.75
2023-02-01T05:32:52.687Z,-20242.88
2023-02-01T05:33:56.273Z,-20242.50
2023-02-01T05:34:59.402Z,-20242.31
2023-02-01T05:36:02.522Z,-20241.41
2023-02-01T05:37:05.878Z,-20242.50
2023-02-01T05:38:09.000Z,-20243.25
2023-02-01T05:39:12.128Z,-20242.31
2023-02-01T05:40:15.368Z,-20242.50
2023-02-01T05:41:18.495Z,-20243.63
2023-02-01T05:42:21.727Z,-20245.66
2023-02-01T05:43:24.971Z,-20247.31
2023-02-01T05:44:28.092Z,-20248.03
2023-02-01T05:45:31.457Z,-20251.38
2023-02-01T05:46:35.938Z,-20253.03
2023-02-01T05:47:39.256Z,-20254.31
2023-02-01T05:48:43.824Z,-20254.69
2023-02-01T05:49:47.058Z,-20253.94
2023-02-01T05:50:50.304Z,-20253.59
2023-02-01T05:51:53.548Z,-20254.88
2023-02-01T05:52:56.782Z,-20255.44
2023-02-01T05:53:59.676Z,-20255.97
2023-02-01T05:55:02.432Z,-20255.06
2023-02-01T05:56:06.036Z,-20256.91
2023-02-01T05:57:09.031Z,-20258.19
2023-02-01T05:58:13.472Z,-20256.53
2023-02-01T05:59:16.475Z,-20255.59
2023-02-01T06:00:21.407Z,-20257.09
2023-02-01T06:01:25.000Z,-20255.78
2023-02-01T06:02:27.777Z,-20255.78
2023-02-01T06:03:31.044Z,-20256.34
2023-02-01T06:04:33.705Z,-20255.78
2023-02-01T06:05:36.457Z,-20255.25
2023-02-01T06:06:39.097Z,-20254.31
2023-02-01T06:07:42.220Z,-20254.50
2023-02-01T06:08:44.935Z,-20253.03
2023-02-01T06:09:47.622Z,-20253.22
2023-02-01T06:10:50.343Z,-20251.38
2023-02-01T06:11:52.857Z,-20250.25
2023-02-01T06:12:55.546Z,-20252.09
2023-02-01T06:13:58.059Z,-20251.00
2023-02-01T06:15:00.547Z,-20250.25
2023-02-01T06:16:04.615Z,-20248.03
2023-02-01T06:17:08.032Z,-20243.03
2023-02-01T06:18:11.020Z,-20241.38
2023-02-01T06:19:14.146Z,-20240.81
2023-02-01T06:20:17.400Z,-20240.28
2023-02-01T06:21:25.005Z,-19601.78
2023-02-01T06:22:28.644Z,-19284.41
2023-02-01T06:23:31.904Z,-19283.34
2023-02-01T06:24:34.550Z,-18644.28
2023-02-01T06:25:38.748Z,-18644.63
2023-02-01T06:26:41.504Z,-18644.63
2023-02-01T06:27:45.831Z,-18326.94
2023-02-01T06:28:48.444Z,-18327.94
2023-02-01T06:29:50.995Z,-18329.13
2023-02-01T06:30:55.361Z,-18648.41
2023-02-01T06:31:58.349Z,-18968.50
2023-02-01T06:33:00.930Z,-19286.16
2023-02-01T06:34:04.075Z,-19607.53
2023-02-01T06:35:08.773Z,-19928.41
2023-02-01T06:36:13.497Z,-20250.06
2023-02-01T06:37:16.085Z,-20250.97
2023-02-01T06:38:19.797Z,-20254.09
2023-02-01T06:39:22.556Z,-19937.13
2023-02-01T06:40:25.345Z,-19938.41
2023-02-01T06:41:29.623Z,-19620.97
2023-02-01T06:42:32.403Z,-18984.19
2023-02-01T06:43:35.173Z,-18347.72
2023-02-01T06:44:37.688Z,-17071.16
2023-02-01T06:45:40.211Z,-16114.22
2023-02-01T06:46:42.780Z,-15795.25
2023-02-01T06:47:45.483Z,-15476.84
2023-02-01T06:48:48.123Z,-15477.13
2023-02-01T06:49:50.643Z,-15478.00
2023-02-01T06:50:53.169Z,-15158.66
2023-02-01T06:51:55.692Z,-14839.16
2023-02-01T06:52:58.206Z,-14200.19
2023-02-01T06:54:01.932Z,-13882.06
2023-02-01T06:55:04.692Z,-13243.56
2023-02-01T06:56:07.459Z,-12284.53
2023-02-01T06:57:09.977Z,-12924.50
2023-02-01T06:58:12.515Z,-12924.38
2023-02-01T06:59:17.193Z,-13243.56
2023-02-01T07:00:20.187Z,-13241.25
2023-02-01T07:01:22.952Z,-13241.50
2023-02-01T07:02:25.689Z,-13241.25
2023-02-01T07:03:28.221Z,-12920.63
2023-02-01T07:04:31.341Z,-12920.00
2023-02-01T07:05:33.864Z,-12599.16
2023-02-01T07:06:36.384Z,-12279.41
2023-02-01T07:07:38.906Z,-11002.34
2023-02-01T07:08:41.440Z,-9404.81
2023-02-01T07:09:44.069Z,-9085.56
2023-02-01T07:10:46.713Z,-8446.06
2023-02-01T07:11:49.592Z,-8126.81
2023-02-01T07:12:52.234Z,-8126.81
2023-02-01T07:13:55.129Z,-8126.47
2023-02-01T07:14:58.003Z,-7806.16
2023-02-01T07:16:02.958Z,-7486.50
2023-02-01T07:17:05.926Z,-7486.03
2023-02-01T07:18:08.922Z,-7486.03
2023-02-01T07:19:11.962Z,-8126.03
2023-02-01T07:20:15.070Z,-8765.22
2023-02-01T07:21:18.298Z,-9085.47
2023-02-01T07:22:21.416Z,-10045.09
2023-02-01T07:23:25.140Z,-11323.75
2023-02-01T07:24:28.189Z,-11961.53
2023-02-01T07:25:31.255Z,-13238.47
2023-02-01T07:26:34.396Z,-15155.09
2023-02-01T07:27:38.227Z,-16431.13
2023-02-01T07:28:42.060Z,-17386.13
2023-02-01T07:29:45.184Z,-19302.06
2023-02-01T07:30:52.305Z,-20256.88
2023-02-01T07:31:55.511Z,-20258.75
2023-02-01T07:33:02.380Z,-20258.56
2023-02-01T07:34:05.830Z,-20258.38
2023-02-01T07:35:09.311Z,-20258.75
2023-02-01T07:36:17.845Z,-20259.84
2023-02-01T07:37:20.956Z,-20258.19
2023-02-01T07:38:25.156Z,-20257.66
2023-02-01T07:39:33.317Z,-20258.00
2023-02-01T07:40:36.443Z,-20259.66
2023-02-01T07:41:39.579Z,-20256.91
2023-02-01T07:42:42.687Z,-20255.06
2023-02-01T07:43:46.524Z,-20254.69
2023-02-01T07:44:49.646Z,-20253.59
2023-02-01T07:45:54.142Z,-20254.50
2023-02-01T07:46:57.214Z,-20252.66
2023-02-01T07:48:00.341Z,-20252.84
2023-02-01T07:49:03.694Z,-20253.22
2023-02-01T07:50:07.296Z,-20253.22
2023-02-01T07:51:14.019Z,-20255.78
2023-02-01T07:52:17.381Z,-20254.31
2023-02-01T07:53:20.864Z,-20255.78
2023-02-01T07:54:24.222Z,-20259.31
2023-02-01T07:55:27.587Z,-20260.22
2023-02-01T07:56:30.947Z,-20259.50
2023-02-01T07:57:33.949Z,-20259.09
2023-02-01T07:58:36.953Z,-20260.94
2023-02-01T08:00:00.117Z,-19624.22
2023-02-01T08:01:21.550Z,-17392.56
2023-02-01T08:02:24.494Z,-15476.69
2023-02-01T08:03:26.998Z,-14200.47
2023-02-01T08:04:30.293Z,-12922.00
2023-02-01T08:05:32.893Z,-11644.09
2023-02-01T08:06:35.801Z,-10365.69
2023-02-01T08:07:38.528Z,-9406.06
2023-02-01T08:08:41.357Z,-9407.03
2023-02-01T08:09:44.097Z,-8767.41
2023-02-01T08:10:46.809Z,-8769.03
2023-02-01T08:11:49.810Z,-8132.63
2023-02-01T08:12:53.104Z,-6857.75
2023-02-01T08:13:56.054Z,-2371.69
2023-02-01T08:14:58.859Z,4055.16
2023-02-01T08:16:02.820Z,11786.28
2023-02-01T08:17:05.352Z,18559.19
2023-02-01T08:18:07.990Z,20817.81
2023-02-01T08:19:10.530Z,20807.44
2023-02-01T08:20:14.786Z,17253.19
2023-02-01T08:21:26.252Z,12740.34
2023-02-01T08:22:33.474Z,8876.59
2023-02-01T08:23:37.637Z,6302.34
2023-02-01T08:24:41.591Z,4052.50
2023-02-01T08:25:45.427Z,2125.53
2023-02-01T08:26:48.107Z,841.47
2023-02-01T08:27:51.406Z,-121.16
2023-02-01T08:29:01.871Z,-1083.66
2023-02-01T08:30:05.956Z,-1725.03
2023-02-01T08:31:11.199Z,-1724.97
2023-02-01T08:32:13.846Z,-2045.69
2023-02-01T08:33:16.535Z,-2366.22
2023-02-01T08:34:19.373Z,-2366.19
2023-02-01T08:35:25.756Z,-1724.78
2023-02-01T08:36:33.942Z,-1083.78
2023-02-01T08:37:36.559Z,-442.53
2023-02-01T08:38:40.760Z,-442.44
2023-02-01T08:39:47.653Z,-442.44
2023-02-01T08:40:50.461Z,199.25
2023-02-01T08:42:11.842Z,841.25
2023-02-01T08:43:15.447Z,841.03
2023-02-01T08:44:17.960Z,2125.50
2023-02-01T08:45:24.967Z,2446.66
2023-02-01T08:46:27.785Z,3410.25
2023-02-01T08:47:30.445Z,3089.03
2023-02-01T08:48:34.644Z,3410.28
2023-02-01T08:49:37.164Z,3731.47
2023-02-01T08:50:39.697Z,3410.25
2023-02-01T08:51:42.329Z,4052.78
2023-02-01T08:52:44.980Z,5016.72
2023-02-01T08:53:47.739Z,5016.88
2023-02-01T08:54:50.375Z,6302.34
2023-02-01T08:55:52.891Z,7910.13
2023-02-01T08:56:56.167Z,7588.75
2023-02-01T08:57:58.771Z,7267.59
2023-02-01T08:59:01.317Z,7910.78
2023-02-01T09:00:05.996Z,7910.91
2023-02-01T09:01:12.793Z,8232.53
2023-02-01T09:02:17.851Z,9519.09
2023-02-01T09:03:20.617Z,9519.16
2023-02-01T09:04:23.209Z,9841.00
2023-02-01T09:05:35.046Z,9519.28
2023-02-01T09:07:09.465Z,9841.63
2023-02-01T09:08:16.188Z,9519.63
2023-02-01T09:09:18.704Z,10484.66
2023-02-01T09:10:34.296Z,10806.66
2023-02-01T09:11:37.314Z,10485.06
2023-02-01T09:12:39.954Z,10807.50
2023-02-01T09:13:42.847Z,10485.19
2023-02-01T09:14:45.520Z,10806.53
2023-02-01T09:15:48.167Z,10163.41
2023-02-01T09:16:51.150Z,9842.50
2023-02-01T09:17:54.005Z,10807.88
2023-02-01T09:19:22.153Z,11774.00
2023-02-01T09:20:21.404Z,12096.69
2023-02-01T09:21:24.374Z,12740.34
2023-02-01T09:22:27.378Z,13063.19
2023-02-01T09:23:30.129Z,14028.41
2023-02-01T09:24:32.902Z,13062.66
2023-02-01T09:25:36.041Z,12741.13
2023-02-01T09:26:39.287Z,13062.66
2023-02-01T09:27:42.374Z,12417.75
2023-02-01T09:28:45.507Z,11452.59
2023-02-01T09:29:53.731Z,11453.06
2023-02-01T09:30:59.008Z,11453.22
2023-02-01T09:32:04.423Z,11131.34
2023-02-01T09:33:07.848Z,12740.34
2023-02-01T09:34:10.950Z,13063.53
2023-02-01T09:35:14.073Z,13383.72
2023-02-01T09:36:17.189Z,13061.59
2023-02-01T09:37:21.154Z,12418.28
2023-02-01T09:38:24.273Z,12095.72
2023-02-01T09:39:27.516Z,11452.16
2023-02-01T09:40:30.637Z,11774.16
2023-02-01T09:41:48.421Z,11774.88
2023-02-01T09:43:14.921Z,11452.91
2023-02-01T09:44:43.817Z,12096.53
2023-02-01T09:46:21.596Z,11131.03
2023-02-01T09:47:26.690Z,10808.91
2023-02-01T09:48:34.510Z,10808.91
2023-02-01T09:49:46.612Z,11130.69
2023-02-01T09:50:56.581Z,11774.47
2023-02-01T09:52:03.535Z,11773.78
2023-02-01T09:53:17.461Z,11130.75
2023-02-01T09:54:25.501Z,11130.47
2023-02-01T09:55:31.739Z,10808.91
2023-02-01T09:57:02.103Z,10165.09
2023-02-01T09:58:26.345Z,9843.06
2023-02-01T09:59:47.947Z,10165.16
2023-02-01T10:01:00.441Z,10164.50
2023-02-01T10:02:06.674Z,8876.91
2023-02-01T10:03:14.529Z,6946.28
2023-02-01T10:04:19.038Z,5016.97
2023-02-01T10:05:46.642Z,2446.66
2023-02-01T10:07:01.424Z,-121.81
2023-02-01T10:08:32.006Z,-3008.84
2023-02-01T10:09:56.419Z,-6533.38
2023-02-01T10:11:25.170Z,-8134.06
2023-02-01T10:12:46.898Z,-10693.72
2023-02-01T10:14:20.901Z,-11973.31
2023-02-01T10:15:31.940Z,-13251.81
2023-02-01T10:16:52.958Z,-13890.81
2023-02-01T10:18:20.018Z,-14848.56
2023-02-01T10:19:30.742Z,-15485.88
2023-02-01T10:21:10.827Z,-16763.56
2023-02-01T10:22:34.229Z,-18357.00
2023-02-01T10:24:17.413Z,-20270.91
2023-02-01T10:25:32.675Z,-20272.41
2023-02-01T10:26:43.676Z,-20271.50
2023-02-01T10:27:47.637Z,-20271.84
2023-02-01T10:28:59.431Z,-20270.56
2023-02-01T10:30:15.597Z,-20273.16
2023-02-01T10:31:18.866Z,-20270.53
2023-02-01T10:32:25.801Z,-19952.78
2023-02-01T10:33:35.433Z,-19953.34
2023-02-01T10:34:37.959Z,-19632.09
2023-02-01T10:35:42.779Z,-19633.72
2023-02-01T10:36:55.717Z,-19953.34
2023-02-01T10:38:21.994Z,-20273.69
2023-02-01T10:39:24.914Z,-20272.38
2023-02-01T10:40:27.999Z,-20271.66
2023-02-01T10:41:40.353Z,-20276.09
2023-02-01T10:42:42.999Z,-20273.88
2023-02-01T10:43:49.291Z,-20275.00
2023-02-01T10:44:52.240Z,-20275.00
2023-02-01T10:45:54.761Z,-20274.81
2023-02-01T10:46:57.401Z,-20272.78
2023-02-01T10:48:02.188Z,-20275.00
2023-02-01T10:49:07.610Z,-20273.16
2023-02-01T10:50:37.379Z,-20274.63
2023-02-01T10:52:13.848Z,-20270.75
2023-02-01T10:53:25.250Z,-20269.84
2023-02-01T10:54:39.442Z,-20269.09
2023-02-01T10:55:54.166Z,-20269.28
2023-02-01T10:56:56.826Z,-19943.69
2023-02-01T10:58:05.097Z,-19626.00
2023-02-01T10:59:17.951Z,-19306.66
2023-02-01T11:00:24.485Z,-18348.06
2023-02-01T11:01:35.248Z,-18030.16
2023-02-01T11:02:38.047Z,-17072.75
2023-02-01T11:03:53.692Z,-17392.88
2023-02-01T11:05:26.583Z,-17074.81
2023-02-01T11:06:44.702Z,-16753.88
2023-02-01T11:07:51.074Z,-16432.81
2023-02-01T11:08:58.979Z,-16433.44
2023-02-01T11:10:02.993Z,-17388.06
2023-02-01T11:11:07.388Z,-13558.94
2023-02-01T11:12:37.164Z,-4602.28
2023-02-01T11:13:41.471Z,-2680.03
2023-02-01T11:14:44.114Z,-4279.84
2023-02-01T11:15:48.119Z,-7479.22
2023-02-01T11:16:56.122Z,-9395.25
2023-02-01T11:18:16.886Z,-12908.78
2023-02-01T11:19:19.639Z,-13864.88
2023-02-01T11:20:42.206Z,-16418.88
2023-02-01T11:21:48.933Z,-17055.97
2023-02-01T11:22:57.087Z,-17694.03
2023-02-01T11:24:05.493Z,-18013.53
2023-02-01T11:25:11.620Z,-18651.31
2023-02-01T11:26:24.840Z,-18968.84
2023-02-01T11:27:28.536Z,-18650.78
2023-02-01T11:28:34.896Z,-18969.56
2023-02-01T11:29:41.629Z,-18971.28
2023-02-01T11:30:47.280Z,-18971.13
2023-02-01T11:31:52.141Z,-19291.81
2023-02-01T11:32:55.660Z,-19608.78
2023-02-01T11:34:10.433Z,-19927.88
2023-02-01T11:35:20.048Z,-19928.22
2023-02-01T11:36:28.673Z,-20246.72
2023-02-01T11:37:41.420Z,-20247.66
2023-02-01T11:39:10.669Z,-20250.59
2023-02-01T11:40:19.807Z,-20250.59
2023-02-01T11:41:25.913Z,-20252.09
2023-02-01T11:42:30.120Z,-20251.34
2023-02-01T11:43:33.240Z,-20249.88
2023-02-01T11:44:39.118Z,-20251.91
2023-02-01T11:45:42.244Z,-20251.38
2023-02-01T11:46:45.627Z,-20251.53
2023-02-01T11:47:54.009Z,-20252.84
2023-02-01T11:48:59.163Z,-20253.22
2023-02-01T11:50:13.927Z,-20252.84
2023-02-01T11:51:24.609Z,-20251.00
2023-02-01T11:52:49.328Z,-20252.47
2023-02-01T11:54:12.919Z,-20249.16
2023-02-01T11:55:24.014Z,-20245.81
2023-02-01T11:56:35.057Z,-20243.41
2023-02-01T11:57:56.206Z,-20245.25
2023-02-01T11:59:14.784Z,-20241.00
2023-02-01T12:00:38.549Z,-20240.28
2023-02-01T12:01:56.924Z,-20231.97
2023-02-01T12:03:36.929Z,-20228.84
2023-02-01T12:04:48.513Z,-20225.16
2023-02-01T12:06:01.479Z,-20223.31
2023-02-01T12:07:23.916Z,-20221.09
2023-02-01T12:09:05.680Z,-20217.41
2023-02-01T12:10:18.766Z,-20213.34
2023-02-01T12:11:33.405Z,-20212.22
2023-02-01T12:12:43.010Z,-20211.31
2023-02-01T12:14:13.913Z,-20210.41
2023-02-01T12:15:49.054Z,-20212.63
2023-02-01T12:16:53.493Z,-20211.69
2023-02-01T12:18:24.712Z,-20212.97
2023-02-01T12:19:31.297Z,-20211.50
2023-02-01T12:20:54.683Z,-20209.28
2023-02-01T12:22:21.329Z,-20210.75
2023-02-01T12:23:47.496Z,-20210.22
2023-02-01T12:25:10.764Z,-20207.44
2023-02-01T12:26:32.021Z,-20204.84
2023-02-01T12:27:57.931Z,-20206.34
2023-02-01T12:29:21.629Z,-20205.78
2023-02-01T12:30:59.421Z,-20207.63
2023-02-01T12:32:27.256Z,-20209.28
2023-02-01T12:33:54.106Z,-20210.75
2023-02-01T12:35:09.835Z,-20215.56
2023-02-01T12:36:29.163Z,-20216.66
2023-02-01T12:38:09.627Z,-20243.06
2023-02-01T12:39:34.313Z,-20246.75
2023-02-01T12:40:54.129Z,-20242.13
2023-02-01T12:42:00.261Z,-20241.41
2023-02-01T12:43:12.979Z,-20236.97
2023-02-01T12:44:26.056Z,-20234.94
2023-02-01T12:45:41.913Z,-20238.09
2023-02-01T12:47:03.272Z,-20236.22
2023-02-01T12:48:29.534Z,-20235.50
2023-02-01T12:49:48.385Z,-20229.22
2023-02-01T12:51:09.765Z,-20227.75
2023-02-01T12:52:29.101Z,-20224.41
2023-02-01T12:54:04.566Z,-20224.06
2023-02-01T12:55:32.660Z,-20220.72
2023-02-01T12:56:52.237Z,-20219.81
2023-02-01T12:58:23.175Z,-20215.94
2023-02-01T12:59:35.245Z,-20215.75
2023-02-01T13:01:10.129Z,-20211.31
2023-02-01T13:02:59.056Z,-20214.44
2023-02-01T13:04:13.571Z,-20215.56
2023-02-01T13:05:20.310Z,-20212.06
2023-02-01T13:06:29.777Z,-20212.78
2023-02-01T13:07:44.775Z,-20224.06
2023-02-01T13:08:50.421Z,-20241.03
2023-02-01T13:10:12.632Z,-20264.84
2023-02-01T13:11:39.382Z,-20301.56
2023-02-01T13:12:50.067Z,-20321.31
2023-02-01T13:14:17.215Z,-15844.72